createdAt,value
2024-04-18T00:15:14.562Z,26.23
2024-04-18T00:30:39.552Z,26.40
2024-04-18T00:46:04.529Z,26.66
2024-04-18T01:01:29.499Z,26.76
2024-04-18T01:16:54.442Z,26.76
2024-04-18T01:32:19.469Z,26.82
2024-04-18T01:47:44.562Z,27.05
2024-04-18T02:03:09.495Z,27.28
2024-04-18T02:18:35.477Z,27.50
2024-04-18T02:34:01.432Z,27.74
2024-04-18T02:49:26.445Z,27.90
2024-04-18T03:04:51.410Z,27.84
2024-04-18T03:20:16.411Z,27.60
2024-04-18T03:35:41.375Z,27.58
2024-04-18T03:51:06.356Z,27.77
2024-04-18T04:06:33.619Z,28.01
2024-04-18T04:21:56.512Z,28.19
2024-04-18T04:37:21.347Z,27.88
2024-04-18T04:52:46.457Z,27.62
2024-04-18T05:08:11.293Z,27.70
2024-04-18T05:23:36.266Z,27.72
2024-04-18T05:39:01.271Z,27.79
2024-04-18T05:54:26.475Z,28.17
2024-04-18T06:09:51.450Z,28.05
2024-04-18T06:25:16.305Z,27.92
2024-04-18T06:40:41.293Z,27.86
2024-04-18T06:56:06.270Z,27.87
2024-04-18T07:11:31.215Z,28.02
2024-04-18T07:26:57.127Z,27.05
2024-04-18T07:42:21.246Z,26.53
2024-04-18T07:57:46.835Z,26.84
2024-04-18T08:13:15.127Z,27.67
2024-04-18T08:28:36.195Z,26.62
2024-04-18T08:44:05.765Z,26.98
2024-04-18T08:59:26.300Z,25.95
2024-04-18T09:14:51.182Z,25.87
2024-04-18T09:30:16.181Z,25.59
2024-04-18T09:45:41.266Z,25.87
2024-04-18T10:01:06.202Z,25.34
2024-04-18T10:16:33.202Z,24.82
2024-04-18T10:31:58.092Z,25.14
2024-04-18T10:47:23.454Z,24.85
2024-04-18T11:02:48.086Z,25.33
2024-04-18T11:18:13.252Z,24.27
2024-04-18T11:33:38.198Z,24.95
2024-04-18T11:49:03.418Z,25.11
2024-04-18T12:04:28.336Z,24.56
2024-04-18T12:19:53.160Z,24.33
2024-04-18T12:35:18.105Z,24.13
2024-04-18T12:50:43.167Z,23.67
2024-04-18T13:06:08.137Z,23.30
2024-04-18T13:21:33.121Z,23.06
2024-04-18T13:36:58.032Z,23.47
2024-04-18T13:52:23.105Z,23.98
2024-04-18T14:07:48.038Z,24.11
2024-04-18T14:23:13.019Z,24.58
2024-04-18T14:38:38.065Z,23.92
2024-04-18T14:54:03.077Z,24.11
2024-04-18T15:09:57.055Z,23.85
2024-04-18T15:25:22.010Z,23.91
2024-04-18T15:40:46.934Z,23.91
2024-04-18T15:56:14.998Z,23.75
2024-04-18T16:11:36.972Z,24.23
2024-04-18T16:27:01.964Z,23.46
2024-04-18T16:42:26.963Z,23.51
2024-04-18T16:57:52.041Z,23.90
2024-04-18T17:13:17.001Z,24.10
2024-04-18T17:28:42.014Z,24.46
2024-04-18T17:44:07.735Z,24.76
2024-04-18T17:59:32.091Z,25.83
2024-04-18T18:14:57.010Z,26.19
2024-04-18T18:30:21.988Z,26.32
2024-04-18T18:45:46.999Z,26.75
2024-04-18T19:01:11.873Z,25.85
2024-04-18T19:16:36.929Z,25.74
2024-04-18T19:32:01.884Z,26.39
2024-04-18T19:47:27.209Z,26.42
2024-04-18T20:02:51.941Z,26.38
2024-04-18T20:18:17.065Z,26.47
2024-04-18T20:33:41.880Z,26.25
2024-04-18T20:49:06.947Z,26.28
2024-04-18T21:04:31.806Z,26.52
2024-04-18T21:19:56.858Z,26.25
2024-04-18T21:35:21.862Z,26.01
2024-04-18T21:50:46.808Z,26.00
2024-04-18T22:06:11.864Z,25.92
2024-04-18T22:21:37.402Z,25.52
2024-04-18T22:37:01.810Z,25.30
2024-04-18T22:52:26.799Z,25.17
2024-04-18T23:07:51.764Z,25.01
2024-04-18T23:23:16.826Z,24.97
2024-04-18T23:38:41.880Z,24.83
2024-04-18T23:54:06.816Z,24.84
